F/V Kan An Ael — FHIZ — position and weather

sailwx.info

Track history (hours):
 
Tides and Currents Weather Stations Pressure Air Temp Water Temp Dewpoint Dewpoint Depression Visibility Wind Speed Wind Dir Waves Ship Positions

F/V Kan An Ael

Last reported at 2017-Nov-24 16:44 UTC. Time now 2017-Nov-25 00:13 UTC.
Position N 47°49' W 004°23'.

Length 16 m.

Type: Fishing. MMSI: 228109000.

Date/timePositionNaut miles runAvg speedWind from/ knotsBaromVisibWave heightAir tempDewpointWater temp
2017-Nov-24 16:44N 47°49' W 004°23'0 0.7
2017-Nov-24 16:28N 47°49' W 004°23'0 0.0
2017-Nov-24 16:00N 47°49' W 004°23'0 0.0
2017-Nov-24 15:30N 47°49' W 004°23'0 0.0
2017-Nov-24 15:00N 47°49' W 004°23'0 0.0
2017-Nov-24 14:30N 47°49' W 004°23'0 0.0
2017-Nov-24 14:00N 47°49' W 004°23'0 0.0
2017-Nov-24 13:30N 47°49' W 004°23'0 0.0
2017-Nov-24 13:00N 47°49' W 004°23'0 0.0
2017-Nov-24 12:30N 47°49' W 004°23'0 1.0
2017-Nov-24 12:00N 47°49' W 004°24'4 7.0
2017-Nov-24 11:27N 47°45' W 004°20'4 8.6
2017-Nov-24 11:00N 47°45' W 004°15'9 8.7
2017-Nov-24 10:00N 47°46' W 004°02'7 8.4
2017-Nov-24 09:11N 47°51' W 003°56'  
Track history (hours):
 
Tides and Currents Weather Stations Pressure Air Temp Water Temp Dewpoint Dewpoint Depression Visibility Wind Speed Wind Dir Waves Ship Positions

F/V Kan An Ael

Last reported at 2017-Nov-24 16:44 UTC. Time now 2017-Nov-25 00:13 UTC.
Position N 47°49' W 004°23'.

Length 16 m.

Type: Fishing. MMSI: 228109000.

Date/timePositionNaut miles runAvg speedWind from/ knotsBaromVisibWave heightAir tempDewpointWater temp
2017-Nov-24 16:44N 47°49' W 004°23'0 0.7
2017-Nov-24 16:28N 47°49' W 004°23'0 0.0
2017-Nov-24 16:00N 47°49' W 004°23'0 0.0
2017-Nov-24 15:30N 47°49' W 004°23'0 0.0
2017-Nov-24 15:00N 47°49' W 004°23'0 0.0
2017-Nov-24 14:30N 47°49' W 004°23'0 0.0
2017-Nov-24 14:00N 47°49' W 004°23'0 0.0
2017-Nov-24 13:30N 47°49' W 004°23'0 0.0
2017-Nov-24 13:00N 47°49' W 004°23'0 0.0
2017-Nov-24 12:30N 47°49' W 004°23'0 1.0
2017-Nov-24 12:00N 47°49' W 004°24'4 7.0
2017-Nov-24 11:27N 47°45' W 004°20'4 8.6
2017-Nov-24 11:00N 47°45' W 004°15'9 8.7
2017-Nov-24 10:00N 47°46' W 004°02'7 8.4
2017-Nov-24 09:11N 47°51' W 003°56'  

Dump ship's entire track history